首页
METAR-TAF:

METAR-TAF

机场 :

墨西拿, 意大利

纬度: 38-12N, 经度: 015-33E, 海拔: 59米

当前天气观测

该预报发布于43分钟前的00:55 UTC
风速1节,风向西转西南
温度 13°C
湿度 88%
气压 1023 hPa
能见度10公里或以上
散云层高于3300英尺

METAR: LICF 070055Z 25001KT 9999 SCT033 13/11 Q1023 RMK BKN BKN080 QUK / QUL / VIS MAR 12 KM MON INVIS NC VIS MIN 9999

时间: 03:38 (01:38 UTC)


TAF: 丢失

超过4000个机场的气象观测和天气预报(METAR&TAF报告)。

可查询的气象台以黄色和红色小点在地图上表示。

将鼠标移到小点上方,可查看气象台名称。

然后点击查看天气观测和预报。

如需切换地图:点击带黑十字的绿色按钮放大地图;点击带横线的绿色按钮缩小地图;或者点击绿色箭头查看邻近地区的地图。


METAR-TAF: